Time;durP1;ratioP1;P1;durP2;ratioP2;P2;SDS_P1;SDS_P2;PMS_P1;PMS_P2;Temp;Humidity;BMP_temperature;BMP_pressure;BME280_temperature;BME280_humidity;BME280_pressure;Samples;Min_cycle;Max_cycle;Signal;HPM_P1;HPM_P2
2023/04/26 00:00:23;;;;;;;9.23;6.53;;;;;;;5.13;70.10;101821.75;5092985;28;20020;-58
2023/04/26 00:02:49;;;;;;;13.85;6.22;;;;;;;5.09;70.98;101828.00;5092908;28;20028;-58
2023/04/26 00:05:15;;;;;;;9.73;6.22;;;;;;;5.01;71.00;101820.28;5093045;28;20119;-58
2023/04/26 00:07:43;;;;;;;10.95;7.10;;;;;;;5.05;70.09;101817.56;5091170;28;20218;-58
2023/04/26 00:10:09;;;;;;;12.30;7.28;;;;;;;5.00;71.01;101815.06;5091885;28;20425;-58
2023/04/26 00:12:35;;;;;;;17.52;9.48;;;;;;;4.94;71.05;101813.44;5092797;28;20043;-58
2023/04/26 00:15:02;;;;;;;10.20;6.93;;;;;;;4.95;71.23;101822.22;5092655;28;20020;-57
2023/04/26 00:17:27;;;;;;;14.15;8.85;;;;;;;4.92;71.15;101825.78;5091102;28;20048;-58
2023/04/26 00:19:53;;;;;;;11.95;7.18;;;;;;;4.92;70.99;101817.88;5092856;28;20020;-58
2023/04/26 00:22:19;;;;;;;13.20;7.53;;;;;;;4.94;70.30;101825.72;5091042;28;20107;-58
2023/04/26 00:24:44;;;;;;;11.00;7.70;;;;;;;4.88;70.57;101817.97;5092670;28;20032;-58
2023/04/26 00:27:09;;;;;;;11.30;9.07;;;;;;;4.81;71.05;101821.66;5092569;28;20602;-58
2023/04/26 00:29:36;;;;;;;11.23;6.40;;;;;;;4.85;71.00;101829.44;5091234;28;20031;-58
2023/04/26 00:32:04;;;;;;;10.07;7.45;;;;;;;4.80;71.97;101823.44;5092268;28;20487;-57
2023/04/26 00:34:36;;;;;;;9.25;7.70;;;;;;;4.76;71.44;101830.56;5093866;28;20103;-58
2023/04/26 00:37:04;;;;;;;9.35;7.40;;;;;;;4.70;72.03;101820.13;5091997;28;20094;-58
2023/04/26 00:39:30;;;;;;;8.40;7.35;;;;;;;4.67;71.99;101821.97;5095573;28;20482;-58
2023/04/26 00:41:55;;;;;;;12.35;8.35;;;;;;;4.67;71.93;101817.56;5091536;28;20047;-58
2023/04/26 00:44:21;;;;;;;18.77;7.18;;;;;;;4.63;72.49;101821.19;5091317;28;20044;-58
2023/04/26 00:46:47;;;;;;;12.40;9.85;;;;;;;4.58;72.25;101819.56;5091923;28;20099;-58
2023/04/26 00:49:16;;;;;;;8.18;6.50;;;;;;;4.57;72.39;101823.97;5092423;28;20016;-58
2023/04/26 00:51:44;;;;;;;11.23;7.13;;;;;;;4.50;72.29;101817.97;5091648;28;20028;-58
2023/04/26 00:54:10;;;;;;;11.25;8.43;;;;;;;4.46;72.27;101821.56;5095720;28;20075;-58
2023/04/26 00:56:37;;;;;;;8.07;7.28;;;;;;;4.46;72.54;101824.19;5093394;28;20119;-58
2023/04/26 00:59:03;;;;;;;10.25;7.95;;;;;;;4.37;72.71;101821.75;5083035;28;20475;-58
2023/04/26 01:01:28;;;;;;;12.77;7.85;;;;;;;4.29;72.76;101824.56;5090609;28;20031;-58
2023/04/26 01:03:56;;;;;;;13.77;7.45;;;;;;;4.31;72.52;101824.53;5097841;28;20475;-58
2023/04/26 01:06:21;;;;;;;10.02;7.82;;;;;;;4.25;73.34;101824.66;5105622;28;20030;-58
2023/04/26 01:08:50;;;;;;;9.52;6.95;;;;;;;4.31;72.69;101819.25;5107224;28;20027;-58
2023/04/26 01:11:21;;;;;;;10.85;7.72;;;;;;;4.19;73.03;101823.00;5110230;28;20023;-58
2023/04/26 01:13:47;;;;;;;9.85;7.38;;;;;;;4.25;72.78;101822.03;5110358;28;20031;-58
2023/04/26 01:16:13;;;;;;;11.52;7.50;;;;;;;4.21;72.89;101818.59;5110768;28;20039;-58
2023/04/26 01:18:41;;;;;;;11.98;7.68;;;;;;;4.25;73.15;101820.25;5110671;28;20019;-59
2023/04/26 01:21:07;;;;;;;8.82;7.18;;;;;;;4.26;72.79;101818.47;5110081;28;20048;-58
2023/04/26 01:23:32;;;;;;;8.70;7.57;;;;;;;4.22;73.26;101817.69;5110510;28;20027;-58
2023/04/26 01:25:57;;;;;;;13.55;7.65;;;;;;;4.19;72.98;101820.38;5108747;28;20355;-58
2023/04/26 01:28:23;;;;;;;10.10;9.10;;;;;;;4.07;73.77;101821.50;5107745;28;20028;-58
2023/04/26 01:30:48;;;;;;;9.02;7.63;;;;;;;4.15;73.80;101824.00;5108080;28;20036;-57
2023/04/26 01:33:14;;;;;;;13.63;7.75;;;;;;;4.15;73.67;101826.63;5108429;28;20059;-58
2023/04/26 01:35:40;;;;;;;11.15;7.53;;;;;;;4.09;73.53;101829.38;5111187;28;20016;-57
2023/04/26 01:38:06;;;;;;;10.30;7.93;;;;;;;4.07;73.76;101834.66;5109597;28;20505;-58
2023/04/26 01:40:34;;;;;;;12.52;7.35;;;;;;;4.02;72.70;101839.16;5110272;28;20031;-57
2023/04/26 01:42:59;;;;;;;11.90;7.82;;;;;;;3.86;73.38;101819.31;5110067;28;20055;-57
2023/04/26 01:45:25;;;;;;;9.13;6.78;;;;;;;3.91;73.07;101835.00;5110954;28;20054;-57
2023/04/26 01:47:50;;;;;;;14.35;8.55;;;;;;;3.81;74.01;101827.28;5107580;28;20026;-57
2023/04/26 01:50:16;;;;;;;14.10;8.05;;;;;;;3.82;73.54;101826.41;5112293;28;20024;-57
2023/04/26 01:52:43;;;;;;;9.52;7.65;;;;;;;3.79;73.34;101829.06;5115731;28;20456;-57
2023/04/26 01:55:09;;;;;;;11.15;7.35;;;;;;;3.77;74.02;101822.97;5114398;28;20024;-57
2023/04/26 01:57:34;;;;;;;8.88;8.05;;;;;;;3.68;73.46;101828.41;5112195;28;21475;-57
2023/04/26 02:00:01;;;;;;;14.30;7.90;;;;;;;3.67;73.43;101823.16;5110630;28;20041;-57
2023/04/26 02:02:26;;;;;;;13.38;8.35;;;;;;;3.68;73.39;101827.53;5108403;28;20479;-58
2023/04/26 02:04:52;;;;;;;9.57;7.95;;;;;;;3.68;74.01;101835.41;5113950;28;20049;-58
2023/04/26 02:07:18;;;;;;;8.27;7.40;;;;;;;3.69;73.31;101834.53;5115223;28;20026;-58
2023/04/26 02:09:45;;;;;;;11.55;8.15;;;;;;;3.67;74.09;101831.94;5113682;28;20020;-57
2023/04/26 02:12:10;;;;;;;11.82;7.43;;;;;;;3.64;73.82;101834.63;5113084;28;20436;-57
2023/04/26 02:14:36;;;;;;;12.68;7.68;;;;;;;3.57;74.17;101831.25;5111286;27;20027;-57
2023/04/26 02:17:05;;;;;;;10.35;7.80;;;;;;;3.55;73.74;101827.75;5112974;28;20800;-57
2023/04/26 02:19:33;;;;;;;9.98;7.10;;;;;;;3.52;74.25;101826.94;5111395;28;20453;-58
2023/04/26 02:21:58;;;;;;;14.95;7.70;;;;;;;3.44;74.40;101815.69;5098200;28;20484;-57
2023/04/26 02:24:24;;;;;;;8.73;6.90;;;;;;;3.50;73.75;101834.00;5094566;28;20107;-58
2023/04/26 02:26:51;;;;;;;10.57;8.32;;;;;;;3.48;74.44;101823.53;5094446;28;20048;-58
2023/04/26 02:29:16;;;;;;;11.65;7.80;;;;;;;3.48;74.09;101830.53;5093692;28;20145;-58
2023/04/26 02:31:42;;;;;;;13.05;8.15;;;;;;;3.44;73.79;101820.97;5094867;28;20480;-58
2023/04/26 02:34:07;;;;;;;11.10;7.18;;;;;;;3.44;74.17;101828.84;5093822;28;20023;-58
2023/04/26 02:36:33;;;;;;;13.82;7.53;;;;;;;3.34;74.02;101815.00;5094333;28;20123;-58
2023/04/26 02:38:59;;;;;;;9.20;7.38;;;;;;;3.31;74.43;101826.44;5094549;28;20049;-57
2023/04/26 02:41:24;;;;;;;9.98;7.22;;;;;;;3.21;74.64;101810.84;5094348;28;20506;-58
2023/04/26 02:43:50;;;;;;;11.45;8.68;;;;;;;3.23;74.96;101815.19;5094583;28;20024;-58
2023/04/26 02:46:16;;;;;;;11.57;8.35;;;;;;;3.28;74.85;101828.25;5093293;28;20486;-57
2023/04/26 02:48:41;;;;;;;14.90;8.60;;;;;;;3.21;74.46;101816.09;5110513;28;20491;-58
2023/04/26 02:51:06;;;;;;;11.77;7.32;;;;;;;3.19;74.57;101822.25;5092760;28;20028;-58
2023/04/26 02:53:32;;;;;;;11.40;7.85;;;;;;;3.20;75.02;101820.50;5092932;28;20071;-58
2023/04/26 02:55:59;;;;;;;13.73;7.75;;;;;;;3.19;74.92;101813.50;5093875;28;20047;-58
2023/04/26 02:58:25;;;;;;;13.63;7.60;;;;;;;3.16;74.84;101814.41;5092250;28;20031;-58
2023/04/26 03:00:50;;;;;;;11.80;8.00;;;;;;;3.16;75.33;101818.81;5094403;28;20024;-58
2023/04/26 03:03:16;;;;;;;16.42;9.23;;;;;;;3.13;75.03;101813.59;5094389;28;20020;-58
2023/04/26 03:05:41;;;;;;;10.55;8.00;;;;;;;3.05;75.32;101794.47;5093025;28;20028;-58
2023/04/26 03:08:07;;;;;;;12.27;8.45;;;;;;;3.09;75.08;101812.81;5093727;28;20016;-58
2023/04/26 03:10:35;;;;;;;9.85;8.00;;;;;;;3.00;75.62;101797.19;5094185;28;20098;-58
2023/04/26 03:13:00;;;;;;;16.38;8.05;;;;;;;3.04;75.64;101805.88;5075801;28;20051;-58
2023/04/26 03:15:26;;;;;;;16.15;8.07;;;;;;;2.97;75.84;101791.94;5092657;28;20020;-58
2023/04/26 03:17:52;;;;;;;11.95;8.23;;;;;;;3.01;75.71;101805.94;5093685;28;20528;-58
2023/04/26 03:20:19;;;;;;;9.60;7.45;;;;;;;2.98;75.69;101808.63;5094121;28;20039;-58
2023/04/26 03:22:45;;;;;;;16.70;8.43;;;;;;;2.95;75.36;101807.75;5103288;28;20020;-58
2023/04/26 03:25:10;;;;;;;13.57;7.68;;;;;;;2.97;75.54;101799.84;5110629;28;20355;-58
2023/04/26 03:27:36;;;;;;;10.65;8.00;;;;;;;2.96;74.87;101804.22;5109277;28;20055;-58
2023/04/26 03:30:02;;;;;;;12.32;8.48;;;;;;;2.94;75.30;101807.75;5096084;28;20024;-58
2023/04/26 03:32:28;;;;;;;13.77;8.77;;;;;;;2.89;75.51;101799.97;5093448;28;20032;-58
2023/04/26 03:34:56;;;;;;;10.07;8.23;;;;;;;2.86;76.01;101801.78;5092003;28;20370;-58
2023/04/26 03:37:24;;;;;;;11.98;8.18;;;;;;;2.79;75.87;101792.25;5092807;28;20038;-58
2023/04/26 03:39:51;;;;;;;13.88;8.80;;;;;;;2.82;76.07;101805.34;5093516;28;20035;-58
2023/04/26 03:42:16;;;;;;;16.92;8.70;;;;;;;2.78;76.37;101799.28;5093380;28;20020;-58
2023/04/26 03:44:42;;;;;;;10.60;7.60;;;;;;;2.73;76.53;101793.22;5096698;28;20085;-58
2023/04/26 03:47:07;;;;;;;12.50;9.70;;;;;;;2.72;76.55;101794.97;5092076;28;20035;-58
2023/04/26 03:49:33;;;;;;;15.27;8.25;;;;;;;2.73;76.10;101796.69;5093397;28;20103;-57
2023/04/26 03:51:58;;;;;;;13.00;8.47;;;;;;;2.71;76.33;101792.38;5091228;28;20114;-58
2023/04/26 03:54:24;;;;;;;15.60;8.77;;;;;;;2.73;76.41;101793.22;5091690;28;20028;-58
2023/04/26 03:56:52;;;;;;;10.55;8.52;;;;;;;2.69;76.91;101800.28;5091865;28;20020;-58
2023/04/26 03:59:17;;;;;;;11.75;8.93;;;;;;;2.69;76.80;101807.28;5093161;28;20097;-57
2023/04/26 04:01:45;;;;;;;10.20;8.60;;;;;;;2.64;76.26;101804.72;5093051;28;20474;-58
2023/04/26 04:04:10;;;;;;;15.10;8.80;;;;;;;2.67;76.35;101804.69;5091742;28;20483;-58
2023/04/26 04:06:37;;;;;;;19.02;9.85;;;;;;;2.67;76.36;101799.41;5092261;28;20066;-57
2023/04/26 04:09:04;;;;;;;10.32;8.95;;;;;;;2.66;76.68;101809.97;5093214;28;20365;-58
2023/04/26 04:11:32;;;;;;;10.40;8.63;;;;;;;2.65;76.86;101803.84;5092950;28;20386;-58
2023/04/26 04:13:57;;;;;;;12.23;9.55;;;;;;;2.63;77.07;101796.88;5093001;28;20027;-58
2023/04/26 04:16:23;;;;;;;16.58;9.77;;;;;;;2.64;77.31;101803.84;5092790;28;20399;-58
2023/04/26 04:18:48;;;;;;;16.15;9.88;;;;;;;2.60;77.21;101797.78;5092853;28;20071;-58
2023/04/26 04:21:13;;;;;;;12.98;8.90;;;;;;;2.61;77.17;101790.78;5091825;28;20490;-57
2023/04/26 04:23:39;;;;;;;13.43;9.48;;;;;;;2.61;76.95;101802.16;5091532;28;20024;-57
2023/04/26 04:26:04;;;;;;;12.40;9.15;;;;;;;2.62;77.29;101797.78;5091531;28;20024;-58
2023/04/26 04:28:33;;;;;;;15.10;9.60;;;;;;;2.62;77.62;101805.66;5091419;28;20132;-58
2023/04/26 04:30:59;;;;;;;15.85;9.40;;;;;;;2.65;77.25;101806.47;5092256;28;20056;-57
2023/04/26 04:33:27;;;;;;;16.63;9.50;;;;;;;2.62;77.52;101800.41;5092570;28;20035;-57
2023/04/26 04:35:53;;;;;;;15.75;9.05;;;;;;;2.59;77.97;101803.94;5091822;28;20106;-57
2023/04/26 04:38:19;;;;;;;16.55;9.40;;;;;;;2.49;78.26;101803.19;5091988;28;20024;-58
2023/04/26 04:40:48;;;;;;;11.77;9.80;;;;;;;2.53;78.11;101809.28;5092370;28;20536;-58
2023/04/26 04:43:14;;;;;;;20.15;10.05;;;;;;;2.45;78.30;101793.63;5092218;28;20024;-58
2023/04/26 04:45:39;;;;;;;13.30;9.57;;;;;;;2.55;78.18;101811.88;5091104;28;20073;-57
2023/04/26 04:48:05;;;;;;;11.63;9.77;;;;;;;2.56;78.53;101814.50;5090021;28;20027;-58
2023/04/26 04:50:33;;;;;;;15.95;10.13;;;;;;;2.57;78.51;101816.22;5109024;28;20031;-57
2023/04/26 04:52:58;;;;;;;15.70;10.25;;;;;;;2.57;78.64;101824.09;5096815;28;20536;-57
2023/04/26 04:55:24;;;;;;;15.85;10.57;;;;;;;2.60;78.62;101821.44;5090564;28;20020;-57
2023/04/26 04:57:49;;;;;;;19.35;10.27;;;;;;;2.60;78.90;101820.56;5091782;28;20031;-57
2023/04/26 05:00:15;;;;;;;13.98;10.55;;;;;;;2.61;79.10;101830.16;5092248;28;20478;-58
2023/04/26 05:02:43;;;;;;;17.05;10.48;;;;;;;2.63;80.02;101823.16;5092212;28;20030;-58
2023/04/26 05:05:09;;;;;;;18.80;10.82;;;;;;;2.66;80.00;101831.84;5095414;28;20027;-58
2023/04/26 05:07:35;;;;;;;18.25;11.65;;;;;;;2.72;80.01;101825.63;5106385;28;20039;-58
2023/04/26 05:10:01;;;;;;;18.70;11.00;;;;;;;2.77;80.56;101829.06;5108075;28;20046;-58
2023/04/26 05:12:26;;;;;;;13.45;10.35;;;;;;;2.83;80.61;101828.97;5111054;28;20028;-58
2023/04/26 05:14:52;;;;;;;16.10;11.70;;;;;;;2.86;80.36;101822.81;5108214;28;20139;-58
2023/04/26 05:17:20;;;;;;;15.57;10.77;;;;;;;2.88;80.58;101821.91;5111968;28;20044;-58
2023/04/26 05:19:46;;;;;;;21.88;11.30;;;;;;;2.92;81.10;101825.34;5108935;28;20428;-58
2023/04/26 05:22:17;;;;;;;23.77;11.70;;;;;;;3.01;81.31;101830.44;5111929;28;20019;-58
2023/04/26 05:24:46;;;;;;;14.82;11.13;;;;;;;3.09;81.13;101832.94;5112206;28;20031;-58
2023/04/26 05:27:13;;;;;;;16.38;11.32;;;;;;;3.13;80.77;101829.38;5112324;28;20016;-58
2023/04/26 05:29:38;;;;;;;15.60;10.63;;;;;;;3.15;80.80;101833.72;5111128;28;20486;-58
2023/04/26 05:32:04;;;;;;;19.15;11.40;;;;;;;3.12;80.85;101827.66;5088817;28;20172;-58
2023/04/26 05:34:29;;;;;;;14.73;11.18;;;;;;;3.18;80.86;101835.44;5087104;28;20029;-58
2023/04/26 05:36:55;;;;;;;16.33;11.43;;;;;;;3.24;81.83;101837.09;5070691;28;20032;-58
2023/04/26 05:39:20;;;;;;;17.55;12.45;;;;;;;3.28;81.45;101830.88;5071732;28;20158;-58
2023/04/26 05:41:46;;;;;;;20.88;13.02;;;;;;;3.33;81.26;101839.56;5071594;28;20433;-58
2023/04/26 05:44:13;;;;;;;17.80;12.50;;;;;;;3.33;81.42;101845.69;5071635;28;20131;-58
2023/04/26 05:46:38;;;;;;;20.52;11.70;;;;;;;3.33;81.65;101836.94;5082350;28;20020;-58
2023/04/26 05:49:04;;;;;;;21.75;12.48;;;;;;;3.31;80.86;101826.44;5091758;28;20382;-58
2023/04/26 05:51:29;;;;;;;26.85;12.75;;;;;;;3.42;81.38;101835.00;5091056;28;20035;-58
2023/04/26 05:53:56;;;;;;;21.80;12.38;;;;;;;3.56;81.16;101831.25;5090248;28;20032;-58
2023/04/26 05:56:23;;;;;;;21.40;12.40;;;;;;;3.73;81.58;101834.44;5091459;28;20048;-58
2023/04/26 05:58:48;;;;;;;18.90;11.95;;;;;;;3.87;81.63;101828.94;5090843;28;20493;-58
2023/04/26 06:01:14;;;;;;;20.10;13.13;;;;;;;4.02;80.06;101833.88;5091049;28;20028;-58
2023/04/26 06:03:39;;;;;;;22.35;12.35;;;;;;;4.09;80.04;101818.84;5091607;28;20035;-58
2023/04/26 06:06:05;;;;;;;19.85;12.02;;;;;;;4.28;80.43;101829.84;5089522;28;20055;-58
2023/04/26 06:08:30;;;;;;;17.35;11.90;;;;;;;4.33;80.26;101838.53;5090213;28;20082;-58
2023/04/26 06:10:58;;;;;;;22.80;12.68;;;;;;;4.38;79.54;101835.78;5091163;28;20077;-58
2023/04/26 06:13:24;;;;;;;22.38;13.15;;;;;;;4.43;80.96;101837.41;5091499;28;20024;-58
2023/04/26 06:15:49;;;;;;;21.80;12.00;;;;;;;4.53;79.65;101846.00;5089528;28;20016;-58
2023/04/26 06:18:14;;;;;;;23.05;13.10;;;;;;;4.68;80.56;101848.31;5091030;28;20121;-58
2023/04/26 06:20:40;;;;;;;19.08;12.73;;;;;;;4.78;80.01;101839.28;5091296;28;20038;-58
2023/04/26 06:23:05;;;;;;;23.23;14.65;;;;;;;4.85;79.53;101836.50;5089450;28;20020;-58
2023/04/26 06:25:31;;;;;;;21.52;12.82;;;;;;;5.01;79.44;101843.16;5091340;28;20035;-58
2023/04/26 06:27:57;;;;;;;22.98;12.70;;;;;;;5.07;79.19;101842.13;5091080;28;20495;-58
2023/04/26 06:30:23;;;;;;;21.95;16.45;;;;;;;5.08;79.24;101851.75;5090977;28;20103;-58
2023/04/26 06:32:49;;;;;;;22.90;12.75;;;;;;;5.17;78.90;101855.03;5093425;28;20115;-58
2023/04/26 06:35:16;;;;;;;23.38;12.70;;;;;;;5.24;79.61;101853.13;5094845;28;20020;-58
2023/04/26 06:37:42;;;;;;;20.05;13.82;;;;;;;5.28;79.41;101860.06;5094422;28;20036;-59
2023/04/26 06:40:09;;;;;;;18.65;16.08;;;;;;;5.46;79.69;101856.94;5094907;28;20520;-58
2023/04/26 06:42:35;;;;;;;19.15;11.25;;;;;;;5.67;78.76;101858.16;5094734;28;20024;-58
2023/04/26 06:45:00;;;;;;;17.40;10.63;;;;;;;5.74;77.85;101864.16;5094219;28;20471;-58
2023/04/26 06:47:26;;;;;;;23.83;11.27;;;;;;;5.72;77.14;101859.84;5093086;28;20107;-58
2023/04/26 06:49:51;;;;;;;23.55;13.38;;;;;;;5.63;78.25;101861.81;5094749;28;20387;-58
2023/04/26 06:52:17;;;;;;;28.20;16.05;;;;;;;5.68;78.83;101861.69;5094138;28;20363;-58
2023/04/26 06:54:42;;;;;;;17.35;11.10;;;;;;;5.78;78.30;101864.94;5093216;28;20048;-59
2023/04/26 06:57:10;;;;;;;19.48;10.55;;;;;;;5.80;79.19;101869.28;5093220;28;20106;-58
2023/04/26 06:59:35;;;;;;;19.20;16.48;;;;;;;5.46;79.10;101833.22;5091872;28;20027;-58
2023/04/26 07:02:01;;;;;;;21.25;11.50;;;;;;;5.81;79.71;101860.44;5094193;28;20356;-58
2023/04/26 07:04:27;;;;;;;14.20;10.23;;;;;;;5.87;77.79;101868.19;5094401;28;20390;-58
2023/04/26 07:06:52;;;;;;;20.95;16.40;;;;;;;5.85;78.32;101866.50;5093752;28;20106;-58
2023/04/26 07:09:17;;;;;;;26.70;11.60;;;;;;;6.00;79.34;101868.78;5094613;28;20070;-58
2023/04/26 07:11:46;;;;;;;16.85;10.85;;;;;;;6.09;79.09;101868.53;5094100;28;20051;-58
2023/04/26 07:14:11;;;;;;;18.73;13.90;;;;;;;6.08;78.04;101868.56;5092650;28;20478;-58
2023/04/26 07:16:36;;;;;;;20.35;10.30;;;;;;;6.14;77.73;101866.59;5092478;28;20071;-58
2023/04/26 07:19:02;;;;;;;20.17;14.90;;;;;;;6.12;78.15;101864.94;5092712;28;20032;-58
2023/04/26 07:21:27;;;;;;;14.57;9.57;;;;;;;6.32;76.72;101866.97;5092125;28;20027;-58
2023/04/26 07:23:54;;;;;;;17.50;14.38;;;;;;;6.27;75.82;101875.06;5093769;28;20146;-58
2023/04/26 07:26:22;;;;;;;21.70;10.48;;;;;;;6.47;75.75;101870.94;5092427;28;20024;-59
2023/04/26 07:28:48;;;;;;;18.95;14.40;;;;;;;6.41;75.13;101872.00;5093493;28;20499;-58
2023/04/26 07:31:16;;;;;;;20.63;11.48;;;;;;;6.47;73.86;101877.13;5092377;28;20106;-58
2023/04/26 07:33:43;;;;;;;12.43;8.45;;;;;;;6.55;75.16;101872.47;5092718;28;20485;-58
2023/04/26 07:36:09;;;;;;;17.83;11.57;;;;;;;6.58;74.84;101867.06;5093151;28;20039;-58
2023/04/26 07:38:34;;;;;;;16.15;12.75;;;;;;;6.60;73.73;101864.41;5093627;28;20386;-58
2023/04/26 07:41:00;;;;;;;12.07;8.90;;;;;;;6.86;72.78;101865.41;5092128;28;20024;-59
2023/04/26 07:43:27;;;;;;;16.35;12.85;;;;;;;6.99;71.49;101859.66;5096679;28;20102;-58
2023/04/26 07:45:52;;;;;;;13.10;11.73;;;;;;;7.21;70.18;101851.03;5102784;28;20034;-58
2023/04/26 07:48:18;;;;;;;18.70;9.32;;;;;;;7.44;68.50;101855.53;5108649;28;20031;-58
2023/04/26 07:50:44;;;;;;;21.80;12.27;;;;;;;7.39;69.51;101857.50;5113877;28;20542;-58
2023/04/26 07:53:09;;;;;;;15.95;9.57;;;;;;;7.48;68.69;101862.47;5112132;28;20499;-58
2023/04/26 07:55:36;;;;;;;13.98;7.80;;;;;;;7.43;66.70;101859.97;5112316;28;20043;-58
2023/04/26 07:58:02;;;;;;;13.63;8.30;;;;;;;7.51;66.10;101862.38;5110532;27;20050;-58
2023/04/26 08:00:27;;;;;;;13.05;8.68;;;;;;;7.48;66.19;101858.03;5113544;28;20023;-58
2023/04/26 08:02:53;;;;;;;12.30;8.32;;;;;;;7.53;64.69;101876.44;5113305;27;20386;-58
2023/04/26 08:05:18;;;;;;;15.93;7.22;;;;;;;7.47;64.92;101876.63;5109772;28;20084;-58
2023/04/26 08:07:44;;;;;;;16.00;7.95;;;;;;;7.50;65.03;101877.41;5104112;28;20035;-58
2023/04/26 08:10:10;;;;;;;11.38;7.25;;;;;;;7.59;63.78;101884.16;5111899;28;20038;-58
2023/04/26 08:12:37;;;;;;;10.00;6.65;;;;;;;7.68;63.80;101891.78;5112900;28;20019;-58
2023/04/26 08:15:03;;;;;;;12.27;7.85;;;;;;;7.95;63.22;101884.66;5101592;28;20028;-58
2023/04/26 08:17:30;;;;;;;8.73;6.80;;;;;;;8.03;60.48;101891.47;5095043;28;20040;-58
2023/04/26 08:19:56;;;;;;;8.90;7.80;;;;;;;8.09;62.51;101880.63;5091368;28;20498;-58
2023/04/26 08:22:22;;;;;;;12.10;9.38;;;;;;;8.07;63.72;101878.06;5092146;28;20020;-58
2023/04/26 08:24:49;;;;;;;11.90;7.68;;;;;;;8.12;61.76;101875.25;5092723;28;20028;-58
2023/04/26 08:27:18;;;;;;;12.85;9.20;;;;;;;8.01;63.17;101877.44;5095377;28;20023;-58
2023/04/26 08:29:43;;;;;;;10.85;6.75;;;;;;;8.05;61.60;101876.38;5111048;28;20531;-58
2023/04/26 08:32:09;;;;;;;13.35;7.70;;;;;;;7.78;59.69;101873.78;5104415;28;20053;-58
2023/04/26 08:34:34;;;;;;;10.25;5.20;;;;;;;7.84;59.67;101884.16;5111679;28;20458;-58
2023/04/26 08:37:00;;;;;;;7.47;6.70;;;;;;;7.82;57.34;101874.53;5087629;28;20380;-58
2023/04/26 08:39:25;;;;;;;9.05;5.68;;;;;;;7.85;57.71;101890.31;5089983;28;20096;-58
2023/04/26 08:41:56;;;;;;;9.43;6.63;;;;;;;7.87;57.97;101881.41;5089782;28;20505;-58
2023/04/26 08:44:24;;;;;;;10.25;8.18;;;;;;;7.80;59.02;101876.41;5092199;28;20115;-58
2023/04/26 08:47:17;;;;;;;11.60;6.78;;;;;;;7.95;60.13;101873.22;5092071;28;20023;-58
2023/04/26 08:49:46;;;;;;;8.57;6.05;;;;;;;7.87;60.18;101867.31;5088768;28;20056;-58
2023/04/26 08:52:13;;;;;;;9.80;7.20;;;;;;;7.70;57.03;101878.47;5091733;28;20059;-58
2023/04/26 08:54:42;;;;;;;9.45;6.15;;;;;;;7.83;58.02;101869.22;5091823;28;20360;-58
2023/04/26 08:57:10;;;;;;;11.50;6.20;;;;;;;7.88;57.51;101859.31;5092025;28;20030;-58
2023/04/26 08:59:37;;;;;;;10.43;8.20;;;;;;;8.13;57.41;101872.53;5092250;28;20073;-58
2023/04/26 09:02:06;;;;;;;10.00;7.03;;;;;;;8.58;56.73;101866.47;5092049;28;20036;-58
2023/04/26 09:04:32;;;;;;;8.35;5.85;;;;;;;8.96;56.80;101865.91;5092052;28;20034;-58
2023/04/26 09:07:00;;;;;;;9.18;6.55;;;;;;;9.17;52.20;101875.63;5091254;28;20020;-58
2023/04/26 09:09:40;;;;;;;14.43;7.18;;;;;;;9.17;52.85;101865.03;5090731;28;20024;-58
2023/04/26 09:12:06;;;;;;;9.60;7.15;;;;;;;9.40;52.98;101856.13;5091956;28;20027;-58
2023/04/26 09:14:32;;;;;;;13.18;8.93;;;;;;;9.63;54.38;101857.78;5092055;28;20581;-58
2023/04/26 09:17:00;;;;;;;8.77;7.75;;;;;;;9.56;54.61;101866.97;5091526;28;20119;-60
2023/04/26 09:19:36;;;;;;;12.38;7.82;;;;;;;9.56;54.74;101861.66;5091986;28;20024;-58
2023/04/26 09:22:02;;;;;;;10.68;7.53;;;;;;;9.38;51.45;101857.97;5091504;28;20107;-58
2023/04/26 09:24:28;;;;;;;13.18;8.15;;;;;;;9.29;52.63;101856.59;5090447;28;20475;-58
2023/04/26 09:27:03;;;;;;;10.05;7.18;;;;;;;9.21;51.13;101857.81;5091768;28;20031;-58
2023/04/26 09:29:29;;;;;;;9.93;7.32;;;;;;;9.09;50.00;101852.09;5090591;28;20024;-58
2023/04/26 09:31:57;;;;;;;13.52;8.10;;;;;;;9.19;51.99;101844.59;5090509;28;20486;-58
2023/04/26 09:34:22;;;;;;;7.95;7.15;;;;;;;9.30;52.41;101855.63;5092001;28;20028;-58
2023/04/26 09:36:52;;;;;;;8.65;7.75;;;;;;;9.21;50.41;101860.47;5091163;28;20108;-58
2023/04/26 09:39:31;;;;;;;9.02;7.38;;;;;;;9.47;51.39;101864.69;5091589;28;20027;-58
2023/04/26 09:41:56;;;;;;;10.82;7.18;;;;;;;9.52;50.19;101862.69;5091666;28;20032;-58
2023/04/26 09:44:23;;;;;;;7.85;7.05;;;;;;;9.39;48.51;101867.66;5091605;28;20024;-58
2023/04/26 09:47:05;;;;;;;9.45;7.03;;;;;;;9.40;49.66;101860.56;5090183;28;20506;-58
2023/04/26 09:49:49;;;;;;;9.23;7.15;;;;;;;9.67;50.08;101863.84;5090504;28;20530;-58
2023/04/26 09:52:15;;;;;;;8.68;7.85;;;;;;;9.80;48.03;101848.25;5091023;28;20028;-58
2023/04/26 09:54:41;;;;;;;9.70;6.78;;;;;;;9.90;47.10;101854.88;5090276;28;20032;-58
2023/04/26 09:57:06;;;;;;;9.25;7.78;;;;;;;10.06;49.51;101855.03;5091413;28;20041;-58
2023/04/26 09:59:43;;;;;;;13.40;7.68;;;;;;;10.12;49.74;101842.38;5090374;28;20039;-58
2023/04/26 10:02:22;;;;;;;11.77;8.18;;;;;;;10.14;50.15;101851.09;5091596;28;20042;-58
2023/04/26 10:04:50;;;;;;;12.20;8.18;;;;;;;10.12;49.30;101853.00;5091648;28;20028;-58
2023/04/26 10:07:17;;;;;;;8.95;7.45;;;;;;;10.04;49.18;101847.16;5093668;28;20493;-58
2023/04/26 10:09:45;;;;;;;13.90;7.95;;;;;;;10.05;49.93;101851.53;5095474;28;20387;-58
2023/04/26 10:12:15;;;;;;;9.70;7.63;;;;;;;9.84;50.03;101856.00;5094115;28;20386;-58
2023/04/26 10:14:41;;;;;;;11.63;7.90;;;;;;;9.67;49.15;101866.50;5094585;28;20039;-58
2023/04/26 10:17:07;;;;;;;10.68;7.95;;;;;;;9.72;48.59;101854.75;5094976;28;20056;-58
2023/04/26 10:19:36;;;;;;;12.35;7.80;;;;;;;9.70;48.47;101856.59;5095094;28;20382;-58
2023/04/26 10:22:09;;;;;;;9.85;8.25;;;;;;;9.75;50.12;101848.44;5094325;28;20059;-58
2023/04/26 10:24:35;;;;;;;9.95;8.02;;;;;;;9.70;49.48;101851.28;5095102;28;20037;-58
2023/04/26 10:27:02;;;;;;;10.20;8.32;;;;;;;9.68;50.05;101855.81;5094835;28;20032;-58
2023/04/26 10:29:53;;;;;;;12.68;8.70;;;;;;;9.73;52.93;101847.63;5095166;28;20103;-58
2023/04/26 10:32:22;;;;;;;13.15;8.82;;;;;;;9.52;52.85;101847.63;5094622;28;20123;-58
2023/04/26 10:35:11;;;;;;;12.43;9.40;;;;;;;9.46;52.68;101850.53;5094996;28;20050;-58
2023/04/26 10:37:56;;;;;;;15.20;8.93;;;;;;;9.33;53.22;101846.69;5092807;28;20039;-58
2023/04/26 10:40:24;;;;;;;10.70;8.82;;;;;;;9.36;54.43;101851.00;5094616;28;20032;-58
2023/04/26 10:42:50;;;;;;;11.77;8.55;;;;;;;9.11;52.56;101838.75;5094654;28;20028;-58
2023/04/26 10:45:27;;;;;;;10.77;8.38;;;;;;;9.14;52.79;101846.56;5094664;28;20028;-58
2023/04/26 10:48:18;;;;;;;10.70;8.88;;;;;;;9.36;53.53;101837.75;5094120;28;20024;-58
2023/04/26 10:51:06;;;;;;;13.82;8.20;;;;;;;9.30;52.73;101837.06;5073019;28;20020;-58
2023/04/26 10:53:52;;;;;;;13.32;9.40;;;;;;;9.39;53.58;101835.81;5074515;28;20732;-58
2023/04/26 10:56:26;;;;;;;14.27;8.60;;;;;;;9.37;54.31;101842.97;5073993;28;20463;-58
2023/04/26 10:59:13;;;;;;;10.98;8.98;;;;;;;9.37;53.34;101834.16;5074211;28;20479;-59
2023/04/26 11:01:39;;;;;;;13.57;9.13;;;;;;;9.31;53.58;101836.13;5073059;28;20024;-58
2023/04/26 11:04:09;;;;;;;10.68;8.80;;;;;;;9.46;53.79;101834.59;5074030;28;20024;-58
2023/04/26 11:06:47;;;;;;;14.50;9.52;;;;;;;9.43;54.44;101826.78;5073475;28;20036;-58
2023/04/26 11:09:35;;;;;;;11.70;9.95;;;;;;;9.44;55.39;101830.28;5078327;28;20028;-58
2023/04/26 11:12:04;;;;;;;10.30;8.90;;;;;;;9.38;54.88;101834.06;5092920;28;20032;-58
2023/04/26 11:14:29;;;;;;;12.23;9.85;;;;;;;9.52;53.79;101826.38;5094241;28;20077;-58
2023/04/26 11:16:55;;;;;;;11.95;9.45;;;;;;;9.96;53.51;101830.69;5093734;28;20040;-58
2023/04/26 11:19:21;;;;;;;11.02;9.80;;;;;;;10.20;52.46;101823.38;5092199;28;20106;-58
2023/04/26 11:21:47;;;;;;;13.60;9.40;;;;;;;10.48;51.41;101819.50;5093351;28;20112;-58
2023/04/26 11:24:16;;;;;;;11.88;8.52;;;;;;;10.55;48.70;101821.78;5093714;28;20032;-58